sensor_id;sensor_type;location;lat;lon;timestamp;P1;durP1;ratioP1;P2;durP2;ratioP2
37164;SDS011;23057;48.554;14.454;2024-01-15T00:01:42;17.20;;;7.00;;
37164;SDS011;23057;48.554;14.454;2024-01-15T00:04:14;21.77;;;8.88;;
37164;SDS011;23057;48.554;14.454;2024-01-15T00:06:45;18.23;;;7.35;;
37164;SDS011;23057;48.554;14.454;2024-01-15T00:09:16;23.80;;;7.82;;
37164;SDS011;23057;48.554;14.454;2024-01-15T00:11:46;19.40;;;8.55;;
37164;SDS011;23057;48.554;14.454;2024-01-15T00:14:17;17.25;;;6.95;;
37164;SDS011;23057;48.554;14.454;2024-01-15T00:16:50;19.77;;;7.28;;
37164;SDS011;23057;48.554;14.454;2024-01-15T00:19:21;17.00;;;7.63;;
37164;SDS011;23057;48.554;14.454;2024-01-15T00:21:53;16.67;;;7.88;;
37164;SDS011;23057;48.554;14.454;2024-01-15T00:24:24;17.45;;;7.40;;
37164;SDS011;23057;48.554;14.454;2024-01-15T00:26:55;26.52;;;10.57;;
37164;SDS011;23057;48.554;14.454;2024-01-15T00:29:26;19.65;;;7.80;;
37164;SDS011;23057;48.554;14.454;2024-01-15T00:31:57;25.83;;;8.27;;
37164;SDS011;23057;48.554;14.454;2024-01-15T00:34:28;21.92;;;8.48;;
37164;SDS011;23057;48.554;14.454;2024-01-15T00:36:58;23.40;;;8.50;;
37164;SDS011;23057;48.554;14.454;2024-01-15T00:39:29;19.75;;;8.15;;
37164;SDS011;23057;48.554;14.454;2024-01-15T00:42:00;19.52;;;7.43;;
37164;SDS011;23057;48.554;14.454;2024-01-15T00:44:31;22.75;;;8.88;;
37164;SDS011;23057;48.554;14.454;2024-01-15T00:47:02;21.77;;;7.88;;
37164;SDS011;23057;48.554;14.454;2024-01-15T00:49:33;23.38;;;8.68;;
37164;SDS011;23057;48.554;14.454;2024-01-15T00:52:04;18.83;;;7.53;;
37164;SDS011;23057;48.554;14.454;2024-01-15T00:54:35;15.27;;;7.93;;
37164;SDS011;23057;48.554;14.454;2024-01-15T00:57:06;22.23;;;10.63;;
37164;SDS011;23057;48.554;14.454;2024-01-15T00:59:37;19.55;;;9.32;;
37164;SDS011;23057;48.554;14.454;2024-01-15T01:02:08;23.05;;;10.88;;
37164;SDS011;23057;48.554;14.454;2024-01-15T01:04:39;22.33;;;8.55;;
37164;SDS011;23057;48.554;14.454;2024-01-15T01:07:10;20.45;;;7.95;;
37164;SDS011;23057;48.554;14.454;2024-01-15T01:09:41;27.15;;;9.85;;
37164;SDS011;23057;48.554;14.454;2024-01-15T01:12:12;20.02;;;9.50;;
37164;SDS011;23057;48.554;14.454;2024-01-15T01:14:43;24.42;;;9.32;;
37164;SDS011;23057;48.554;14.454;2024-01-15T01:17:13;23.92;;;8.77;;
37164;SDS011;23057;48.554;14.454;2024-01-15T01:19:44;20.90;;;8.15;;
37164;SDS011;23057;48.554;14.454;2024-01-15T01:22:15;25.30;;;9.70;;
37164;SDS011;23057;48.554;14.454;2024-01-15T01:24:46;25.88;;;13.00;;
37164;SDS011;23057;48.554;14.454;2024-01-15T01:27:17;25.10;;;10.65;;
37164;SDS011;23057;48.554;14.454;2024-01-15T01:29:47;25.67;;;11.13;;
37164;SDS011;23057;48.554;14.454;2024-01-15T01:32:18;25.30;;;11.18;;
37164;SDS011;23057;48.554;14.454;2024-01-15T01:34:49;27.40;;;12.60;;
37164;SDS011;23057;48.554;14.454;2024-01-15T01:37:20;20.95;;;10.57;;
37164;SDS011;23057;48.554;14.454;2024-01-15T01:39:51;26.80;;;8.35;;
37164;SDS011;23057;48.554;14.454;2024-01-15T01:42:22;32.05;;;9.50;;
37164;SDS011;23057;48.554;14.454;2024-01-15T01:44:53;42.60;;;12.80;;
37164;SDS011;23057;48.554;14.454;2024-01-15T01:47:23;74.47;;;14.60;;
37164;SDS011;23057;48.554;14.454;2024-01-15T01:49:56;59.08;;;13.00;;
37164;SDS011;23057;48.554;14.454;2024-01-15T01:52:27;64.72;;;15.75;;
37164;SDS011;23057;48.554;14.454;2024-01-15T01:54:58;36.70;;;13.95;;
37164;SDS011;23057;48.554;14.454;2024-01-15T01:57:33;38.10;;;15.70;;
37164;SDS011;23057;48.554;14.454;2024-01-15T02:00:05;34.60;;;11.68;;
37164;SDS011;23057;48.554;14.454;2024-01-15T02:02:38;30.10;;;12.27;;
37164;SDS011;23057;48.554;14.454;2024-01-15T02:05:09;25.33;;;11.35;;
37164;SDS011;23057;48.554;14.454;2024-01-15T02:07:44;33.42;;;10.40;;
37164;SDS011;23057;48.554;14.454;2024-01-15T02:10:15;25.20;;;9.88;;
37164;SDS011;23057;48.554;14.454;2024-01-15T02:12:46;30.48;;;12.27;;
37164;SDS011;23057;48.554;14.454;2024-01-15T02:15:18;26.52;;;11.43;;
37164;SDS011;23057;48.554;14.454;2024-01-15T02:18:02;22.60;;;10.13;;
37164;SDS011;23057;48.554;14.454;2024-01-15T02:25:46;31.73;;;10.73;;
37164;SDS011;23057;48.554;14.454;2024-01-15T02:28:17;29.30;;;13.55;;
37164;SDS011;23057;48.554;14.454;2024-01-15T02:30:48;27.25;;;11.40;;
37164;SDS011;23057;48.554;14.454;2024-01-15T02:33:19;31.45;;;14.57;;
37164;SDS011;23057;48.554;14.454;2024-01-15T02:35:50;30.90;;;13.52;;
37164;SDS011;23057;48.554;14.454;2024-01-15T02:38:21;24.65;;;12.88;;
37164;SDS011;23057;48.554;14.454;2024-01-15T02:40:52;30.38;;;13.43;;
37164;SDS011;23057;48.554;14.454;2024-01-15T02:43:22;28.90;;;11.75;;
37164;SDS011;23057;48.554;14.454;2024-01-15T02:45:53;24.13;;;11.73;;
37164;SDS011;23057;48.554;14.454;2024-01-15T02:48:24;30.08;;;14.52;;
37164;SDS011;23057;48.554;14.454;2024-01-15T02:50:55;32.85;;;14.48;;
37164;SDS011;23057;48.554;14.454;2024-01-15T02:53:26;28.23;;;11.80;;
37164;SDS011;23057;48.554;14.454;2024-01-15T02:55:57;27.55;;;11.77;;
37164;SDS011;23057;48.554;14.454;2024-01-15T02:58:27;30.65;;;13.68;;
37164;SDS011;23057;48.554;14.454;2024-01-15T03:00:58;29.63;;;12.27;;
37164;SDS011;23057;48.554;14.454;2024-01-15T03:03:29;30.00;;;14.57;;
37164;SDS011;23057;48.554;14.454;2024-01-15T03:06:01;26.23;;;12.98;;
37164;SDS011;23057;48.554;14.454;2024-01-15T03:08:32;32.25;;;13.95;;
37164;SDS011;23057;48.554;14.454;2024-01-15T03:11:05;35.25;;;20.20;;
37164;SDS011;23057;48.554;14.454;2024-01-15T03:13:36;26.83;;;12.55;;
37164;SDS011;23057;48.554;14.454;2024-01-15T03:16:07;29.15;;;16.75;;
37164;SDS011;23057;48.554;14.454;2024-01-15T03:18:38;33.58;;;19.17;;
37164;SDS011;23057;48.554;14.454;2024-01-15T03:21:08;39.60;;;25.98;;
37164;SDS011;23057;48.554;14.454;2024-01-15T03:23:39;45.17;;;23.67;;
37164;SDS011;23057;48.554;14.454;2024-01-15T03:26:10;35.47;;;19.77;;
37164;SDS011;23057;48.554;14.454;2024-01-15T03:28:41;35.47;;;17.73;;
37164;SDS011;23057;48.554;14.454;2024-01-15T03:31:12;41.38;;;26.85;;
37164;SDS011;23057;48.554;14.454;2024-01-15T03:33:43;39.42;;;18.92;;
37164;SDS011;23057;48.554;14.454;2024-01-15T03:36:14;34.05;;;18.48;;
37164;SDS011;23057;48.554;14.454;2024-01-15T03:38:44;35.75;;;17.83;;
37164;SDS011;23057;48.554;14.454;2024-01-15T03:41:15;36.58;;;18.13;;
37164;SDS011;23057;48.554;14.454;2024-01-15T03:43:46;29.08;;;16.35;;
37164;SDS011;23057;48.554;14.454;2024-01-15T03:46:17;33.45;;;17.73;;
37164;SDS011;23057;48.554;14.454;2024-01-15T03:48:48;28.20;;;13.38;;
37164;SDS011;23057;48.554;14.454;2024-01-15T03:51:19;27.90;;;14.90;;
37164;SDS011;23057;48.554;14.454;2024-01-15T03:53:50;30.65;;;16.58;;
37164;SDS011;23057;48.554;14.454;2024-01-15T03:56:21;33.63;;;14.77;;
37164;SDS011;23057;48.554;14.454;2024-01-15T03:58:52;31.23;;;12.68;;
37164;SDS011;23057;48.554;14.454;2024-01-15T04:01:22;31.50;;;16.55;;
37164;SDS011;23057;48.554;14.454;2024-01-15T04:03:54;36.70;;;16.40;;
37164;SDS011;23057;48.554;14.454;2024-01-15T04:06:25;37.33;;;19.13;;
37164;SDS011;23057;48.554;14.454;2024-01-15T04:08:56;40.78;;;17.08;;
37164;SDS011;23057;48.554;14.454;2024-01-15T04:11:27;31.63;;;15.40;;
37164;SDS011;23057;48.554;14.454;2024-01-15T04:13:57;32.05;;;15.35;;
37164;SDS011;23057;48.554;14.454;2024-01-15T04:16:28;30.23;;;15.68;;
37164;SDS011;23057;48.554;14.454;2024-01-15T04:18:59;33.83;;;16.88;;
37164;SDS011;23057;48.554;14.454;2024-01-15T04:21:30;28.55;;;13.02;;
37164;SDS011;23057;48.554;14.454;2024-01-15T04:24:01;35.65;;;13.98;;
37164;SDS011;23057;48.554;14.454;2024-01-15T04:26:31;40.63;;;14.38;;
37164;SDS011;23057;48.554;14.454;2024-01-15T04:29:02;39.45;;;18.88;;
37164;SDS011;23057;48.554;14.454;2024-01-15T04:31:33;38.78;;;18.63;;
37164;SDS011;23057;48.554;14.454;2024-01-15T04:34:04;41.35;;;16.10;;
37164;SDS011;23057;48.554;14.454;2024-01-15T04:36:38;37.17;;;18.38;;
37164;SDS011;23057;48.554;14.454;2024-01-15T04:39:10;33.03;;;16.17;;
37164;SDS011;23057;48.554;14.454;2024-01-15T04:41:41;27.80;;;13.98;;
37164;SDS011;23057;48.554;14.454;2024-01-15T04:44:12;37.35;;;18.05;;
37164;SDS011;23057;48.554;14.454;2024-01-15T04:46:43;38.75;;;19.48;;
37164;SDS011;23057;48.554;14.454;2024-01-15T04:49:14;33.22;;;17.02;;
37164;SDS011;23057;48.554;14.454;2024-01-15T04:51:45;41.28;;;17.52;;
37164;SDS011;23057;48.554;14.454;2024-01-15T04:54:16;34.53;;;14.13;;
37164;SDS011;23057;48.554;14.454;2024-01-15T04:56:47;37.22;;;17.45;;
37164;SDS011;23057;48.554;14.454;2024-01-15T04:59:18;37.10;;;17.42;;
37164;SDS011;23057;48.554;14.454;2024-01-15T05:01:49;33.20;;;15.48;;
37164;SDS011;23057;48.554;14.454;2024-01-15T05:04:20;34.30;;;14.35;;
37164;SDS011;23057;48.554;14.454;2024-01-15T05:06:51;38.78;;;18.13;;
37164;SDS011;23057;48.554;14.454;2024-01-15T05:09:23;32.75;;;17.38;;
37164;SDS011;23057;48.554;14.454;2024-01-15T05:11:54;36.63;;;17.88;;
37164;SDS011;23057;48.554;14.454;2024-01-15T05:14:24;43.70;;;20.45;;
37164;SDS011;23057;48.554;14.454;2024-01-15T05:16:55;38.97;;;21.30;;
37164;SDS011;23057;48.554;14.454;2024-01-15T05:19:26;32.33;;;16.02;;
37164;SDS011;23057;48.554;14.454;2024-01-15T05:21:57;31.35;;;15.95;;
37164;SDS011;23057;48.554;14.454;2024-01-15T05:24:27;37.15;;;17.60;;
37164;SDS011;23057;48.554;14.454;2024-01-15T05:26:58;39.72;;;17.80;;
37164;SDS011;23057;48.554;14.454;2024-01-15T05:29:29;43.90;;;19.65;;
37164;SDS011;23057;48.554;14.454;2024-01-15T05:32:00;32.78;;;17.02;;
37164;SDS011;23057;48.554;14.454;2024-01-15T05:34:31;38.30;;;16.17;;
37164;SDS011;23057;48.554;14.454;2024-01-15T05:37:01;34.95;;;17.73;;
37164;SDS011;23057;48.554;14.454;2024-01-15T05:39:32;34.30;;;15.85;;
37164;SDS011;23057;48.554;14.454;2024-01-15T05:42:03;27.90;;;14.35;;
37164;SDS011;23057;48.554;14.454;2024-01-15T05:44:36;33.83;;;17.58;;
37164;SDS011;23057;48.554;14.454;2024-01-15T05:47:15;33.35;;;15.95;;
37164;SDS011;23057;48.554;14.454;2024-01-15T05:49:46;35.47;;;15.48;;
37164;SDS011;23057;48.554;14.454;2024-01-15T05:52:17;31.33;;;12.20;;
37164;SDS011;23057;48.554;14.454;2024-01-15T05:54:47;31.38;;;13.52;;
37164;SDS011;23057;48.554;14.454;2024-01-15T05:57:19;29.63;;;13.95;;
37164;SDS011;23057;48.554;14.454;2024-01-15T05:59:50;20.30;;;10.43;;
37164;SDS011;23057;48.554;14.454;2024-01-15T06:02:21;25.52;;;13.60;;
37164;SDS011;23057;48.554;14.454;2024-01-15T06:04:52;31.40;;;13.85;;
37164;SDS011;23057;48.554;14.454;2024-01-15T06:07:23;28.02;;;12.60;;
37164;SDS011;23057;48.554;14.454;2024-01-15T06:09:54;26.55;;;12.80;;
37164;SDS011;23057;48.554;14.454;2024-01-15T06:12:27;30.08;;;14.93;;
37164;SDS011;23057;48.554;14.454;2024-01-15T06:14:58;23.92;;;11.50;;
37164;SDS011;23057;48.554;14.454;2024-01-15T06:17:29;31.95;;;14.38;;
37164;SDS011;23057;48.554;14.454;2024-01-15T06:20:01;27.88;;;13.63;;
37164;SDS011;23057;48.554;14.454;2024-01-15T06:22:33;28.38;;;12.13;;
37164;SDS011;23057;48.554;14.454;2024-01-15T06:25:04;26.52;;;11.00;;
37164;SDS011;23057;48.554;14.454;2024-01-15T06:27:38;29.88;;;13.55;;
37164;SDS011;23057;48.554;14.454;2024-01-15T06:30:09;30.38;;;13.85;;
37164;SDS011;23057;48.554;14.454;2024-01-15T06:32:40;33.83;;;13.32;;
37164;SDS011;23057;48.554;14.454;2024-01-15T06:35:11;27.60;;;13.80;;
37164;SDS011;23057;48.554;14.454;2024-01-15T06:37:42;32.95;;;16.55;;
37164;SDS011;23057;48.554;14.454;2024-01-15T06:40:13;34.15;;;14.23;;
37164;SDS011;23057;48.554;14.454;2024-01-15T06:42:44;22.35;;;11.10;;
37164;SDS011;23057;48.554;14.454;2024-01-15T06:45:15;29.52;;;12.88;;
37164;SDS011;23057;48.554;14.454;2024-01-15T06:47:45;26.08;;;14.05;;
37164;SDS011;23057;48.554;14.454;2024-01-15T06:50:16;29.80;;;14.48;;
37164;SDS011;23057;48.554;14.454;2024-01-15T06:52:47;33.25;;;15.48;;
37164;SDS011;23057;48.554;14.454;2024-01-15T06:55:18;31.98;;;15.10;;
37164;SDS011;23057;48.554;14.454;2024-01-15T06:57:49;25.45;;;12.88;;
37164;SDS011;23057;48.554;14.454;2024-01-15T07:00:20;26.10;;;12.95;;
37164;SDS011;23057;48.554;14.454;2024-01-15T07:02:51;30.67;;;13.75;;
37164;SDS011;23057;48.554;14.454;2024-01-15T07:05:22;31.77;;;14.18;;
37164;SDS011;23057;48.554;14.454;2024-01-15T07:07:53;33.13;;;13.82;;
37164;SDS011;23057;48.554;14.454;2024-01-15T07:10:24;28.63;;;15.60;;
37164;SDS011;23057;48.554;14.454;2024-01-15T07:12:56;28.63;;;13.45;;
37164;SDS011;23057;48.554;14.454;2024-01-15T07:15:26;29.75;;;12.50;;
37164;SDS011;23057;48.554;14.454;2024-01-15T07:17:57;27.88;;;15.23;;
37164;SDS011;23057;48.554;14.454;2024-01-15T07:20:28;25.95;;;10.48;;
37164;SDS011;23057;48.554;14.454;2024-01-15T07:22:59;25.85;;;12.20;;
37164;SDS011;23057;48.554;14.454;2024-01-15T07:25:30;24.33;;;13.10;;
37164;SDS011;23057;48.554;14.454;2024-01-15T07:28:01;29.65;;;12.18;;
37164;SDS011;23057;48.554;14.454;2024-01-15T07:30:33;28.80;;;12.80;;
37164;SDS011;23057;48.554;14.454;2024-01-15T07:33:04;26.48;;;13.27;;
37164;SDS011;23057;48.554;14.454;2024-01-15T07:35:35;22.42;;;10.55;;
37164;SDS011;23057;48.554;14.454;2024-01-15T07:38:07;27.98;;;12.55;;
37164;SDS011;23057;48.554;14.454;2024-01-15T07:40:39;27.13;;;12.95;;
37164;SDS011;23057;48.554;14.454;2024-01-15T07:43:10;26.23;;;13.50;;
37164;SDS011;23057;48.554;14.454;2024-01-15T07:45:41;29.48;;;12.85;;
37164;SDS011;23057;48.554;14.454;2024-01-15T07:48:12;25.83;;;10.73;;
37164;SDS011;23057;48.554;14.454;2024-01-15T07:50:43;21.15;;;9.93;;
37164;SDS011;23057;48.554;14.454;2024-01-15T07:53:13;27.48;;;11.82;;
37164;SDS011;23057;48.554;14.454;2024-01-15T07:55:44;26.30;;;12.13;;
37164;SDS011;23057;48.554;14.454;2024-01-15T07:58:16;23.23;;;10.68;;
37164;SDS011;23057;48.554;14.454;2024-01-15T08:00:46;28.67;;;12.93;;
37164;SDS011;23057;48.554;14.454;2024-01-15T08:03:17;25.30;;;12.18;;
37164;SDS011;23057;48.554;14.454;2024-01-15T08:05:48;24.50;;;10.38;;
37164;SDS011;23057;48.554;14.454;2024-01-15T08:08:22;29.08;;;13.27;;
37164;SDS011;23057;48.554;14.454;2024-01-15T08:10:53;22.70;;;10.50;;
37164;SDS011;23057;48.554;14.454;2024-01-15T08:13:26;27.38;;;11.55;;
37164;SDS011;23057;48.554;14.454;2024-01-15T08:16:02;29.80;;;12.23;;
37164;SDS011;23057;48.554;14.454;2024-01-15T08:18:33;21.15;;;9.15;;
37164;SDS011;23057;48.554;14.454;2024-01-15T08:21:04;25.30;;;11.48;;
37164;SDS011;23057;48.554;14.454;2024-01-15T08:23:35;26.20;;;11.85;;
37164;SDS011;23057;48.554;14.454;2024-01-15T08:26:06;20.38;;;9.00;;
37164;SDS011;23057;48.554;14.454;2024-01-15T08:28:36;19.50;;;10.80;;
37164;SDS011;23057;48.554;14.454;2024-01-15T08:31:07;22.65;;;10.52;;
37164;SDS011;23057;48.554;14.454;2024-01-15T08:33:39;18.92;;;9.57;;
37164;SDS011;23057;48.554;14.454;2024-01-15T08:36:10;20.45;;;8.27;;
37164;SDS011;23057;48.554;14.454;2024-01-15T08:38:41;20.10;;;9.25;;
37164;SDS011;23057;48.554;14.454;2024-01-15T08:41:11;21.00;;;8.95;;
37164;SDS011;23057;48.554;14.454;2024-01-15T08:43:43;16.17;;;7.82;;
37164;SDS011;23057;48.554;14.454;2024-01-15T08:46:14;18.75;;;9.82;;
37164;SDS011;23057;48.554;14.454;2024-01-15T08:48:45;20.20;;;10.20;;
37164;SDS011;23057;48.554;14.454;2024-01-15T08:51:16;22.30;;;9.30;;
37164;SDS011;23057;48.554;14.454;2024-01-15T08:53:48;22.60;;;10.35;;
37164;SDS011;23057;48.554;14.454;2024-01-15T08:56:19;15.25;;;7.60;;
37164;SDS011;23057;48.554;14.454;2024-01-15T08:58:50;15.80;;;8.02;;
37164;SDS011;23057;48.554;14.454;2024-01-15T09:01:21;17.98;;;6.38;;
37164;SDS011;23057;48.554;14.454;2024-01-15T09:03:53;15.00;;;8.20;;
37164;SDS011;23057;48.554;14.454;2024-01-15T09:06:24;15.00;;;7.28;;
37164;SDS011;23057;48.554;14.454;2024-01-15T09:08:54;14.70;;;7.40;;
37164;SDS011;23057;48.554;14.454;2024-01-15T09:11:25;12.80;;;7.25;;
37164;SDS011;23057;48.554;14.454;2024-01-15T09:13:56;20.55;;;9.00;;
37164;SDS011;23057;48.554;14.454;2024-01-15T09:16:27;16.20;;;7.63;;
37164;SDS011;23057;48.554;14.454;2024-01-15T09:18:58;15.50;;;8.70;;
37164;SDS011;23057;48.554;14.454;2024-01-15T09:21:28;14.25;;;7.32;;
37164;SDS011;23057;48.554;14.454;2024-01-15T09:23:59;14.38;;;5.47;;
37164;SDS011;23057;48.554;14.454;2024-01-15T09:26:30;12.02;;;6.38;;
37164;SDS011;23057;48.554;14.454;2024-01-15T09:29:01;15.80;;;6.75;;
37164;SDS011;23057;48.554;14.454;2024-01-15T09:31:32;13.88;;;6.47;;
37164;SDS011;23057;48.554;14.454;2024-01-15T09:34:03;12.73;;;6.70;;
37164;SDS011;23057;48.554;14.454;2024-01-15T09:36:39;11.98;;;6.00;;
37164;SDS011;23057;48.554;14.454;2024-01-15T09:39:12;14.87;;;6.53;;
37164;SDS011;23057;48.554;14.454;2024-01-15T09:41:42;13.05;;;6.45;;
37164;SDS011;23057;48.554;14.454;2024-01-15T09:44:14;13.55;;;7.20;;
37164;SDS011;23057;48.554;14.454;2024-01-15T09:46:46;8.00;;;5.47;;
37164;SDS011;23057;48.554;14.454;2024-01-15T09:49:20;12.20;;;5.25;;
37164;SDS011;23057;48.554;14.454;2024-01-15T09:51:51;15.93;;;7.43;;
37164;SDS011;23057;48.554;14.454;2024-01-15T09:54:26;13.25;;;6.00;;
37164;SDS011;23057;48.554;14.454;2024-01-15T09:56:58;9.75;;;5.38;;
37164;SDS011;23057;48.554;14.454;2024-01-15T09:59:31;10.15;;;5.30;;
37164;SDS011;23057;48.554;14.454;2024-01-15T10:02:03;13.98;;;7.13;;
37164;SDS011;23057;48.554;14.454;2024-01-15T10:04:37;12.23;;;6.65;;
37164;SDS011;23057;48.554;14.454;2024-01-15T10:07:08;11.82;;;5.97;;
37164;SDS011;23057;48.554;14.454;2024-01-15T10:09:46;10.93;;;6.60;;
37164;SDS011;23057;48.554;14.454;2024-01-15T10:12:17;12.90;;;6.90;;
37164;SDS011;23057;48.554;14.454;2024-01-15T10:14:48;8.70;;;4.88;;
37164;SDS011;23057;48.554;14.454;2024-01-15T10:17:20;11.80;;;5.80;;
37164;SDS011;23057;48.554;14.454;2024-01-15T10:19:51;10.40;;;5.60;;
37164;SDS011;23057;48.554;14.454;2024-01-15T10:22:22;8.00;;;4.68;;
37164;SDS011;23057;48.554;14.454;2024-01-15T10:24:53;8.45;;;5.47;;
37164;SDS011;23057;48.554;14.454;2024-01-15T10:27:24;10.65;;;4.80;;
37164;SDS011;23057;48.554;14.454;2024-01-15T10:29:54;10.75;;;6.20;;
37164;SDS011;23057;48.554;14.454;2024-01-15T10:32:30;11.25;;;5.10;;
37164;SDS011;23057;48.554;14.454;2024-01-15T10:35:02;9.73;;;5.82;;
37164;SDS011;23057;48.554;14.454;2024-01-15T10:37:34;9.70;;;5.53;;
37164;SDS011;23057;48.554;14.454;2024-01-15T10:40:05;10.55;;;6.43;;
37164;SDS011;23057;48.554;14.454;2024-01-15T10:42:37;10.10;;;5.95;;
37164;SDS011;23057;48.554;14.454;2024-01-15T10:45:07;12.52;;;6.18;;
37164;SDS011;23057;48.554;14.454;2024-01-15T10:47:39;9.27;;;4.93;;
37164;SDS011;23057;48.554;14.454;2024-01-15T10:50:12;11.52;;;6.40;;
37164;SDS011;23057;48.554;14.454;2024-01-15T10:52:43;13.90;;;5.75;;
37164;SDS011;23057;48.554;14.454;2024-01-15T10:55:14;9.60;;;5.38;;
37164;SDS011;23057;48.554;14.454;2024-01-15T10:57:46;9.88;;;5.68;;
37164;SDS011;23057;48.554;14.454;2024-01-15T11:00:19;11.40;;;5.97;;
37164;SDS011;23057;48.554;14.454;2024-01-15T11:02:51;9.18;;;5.50;;
37164;SDS011;23057;48.554;14.454;2024-01-15T11:05:25;10.82;;;5.13;;
37164;SDS011;23057;48.554;14.454;2024-01-15T11:07:58;9.30;;;5.70;;
37164;SDS011;23057;48.554;14.454;2024-01-15T11:10:39;11.55;;;5.10;;
37164;SDS011;23057;48.554;14.454;2024-01-15T11:13:19;8.75;;;4.68;;
37164;SDS011;23057;48.554;14.454;2024-01-15T11:16:03;9.23;;;4.63;;
37164;SDS011;23057;48.554;14.454;2024-01-15T11:18:42;11.23;;;5.57;;
37164;SDS011;23057;48.554;14.454;2024-01-15T11:21:29;7.70;;;4.20;;
37164;SDS011;23057;48.554;14.454;2024-01-15T11:24:00;10.68;;;6.10;;
37164;SDS011;23057;48.554;14.454;2024-01-15T11:32:07;13.20;;;5.15;;
37164;SDS011;23057;48.554;14.454;2024-01-15T11:40:21;9.13;;;5.15;;
37164;SDS011;23057;48.554;14.454;2024-01-15T11:43:08;6.90;;;3.70;;
37164;SDS011;23057;48.554;14.454;2024-01-15T11:45:39;11.77;;;4.78;;
37164;SDS011;23057;48.554;14.454;2024-01-15T11:48:12;6.38;;;4.07;;
37164;SDS011;23057;48.554;14.454;2024-01-15T11:50:48;8.55;;;4.55;;
37164;SDS011;23057;48.554;14.454;2024-01-15T11:53:26;8.15;;;4.22;;
37164;SDS011;23057;48.554;14.454;2024-01-15T11:56:09;10.02;;;5.05;;
37164;SDS011;23057;48.554;14.454;2024-01-15T11:58:47;6.22;;;3.63;;
37164;SDS011;23057;48.554;14.454;2024-01-15T12:01:20;7.32;;;4.30;;
37164;SDS011;23057;48.554;14.454;2024-01-15T12:03:51;7.60;;;4.07;;
37164;SDS011;23057;48.554;14.454;2024-01-15T12:06:22;7.18;;;3.70;;
37164;SDS011;23057;48.554;14.454;2024-01-15T12:09:05;7.63;;;4.30;;
37164;SDS011;23057;48.554;14.454;2024-01-15T12:11:38;6.95;;;3.83;;
37164;SDS011;23057;48.554;14.454;2024-01-15T12:14:24;8.55;;;5.35;;
37164;SDS011;23057;48.554;14.454;2024-01-15T12:16:56;10.65;;;4.90;;
37164;SDS011;23057;48.554;14.454;2024-01-15T12:19:28;15.40;;;5.18;;
37164;SDS011;23057;48.554;14.454;2024-01-15T12:21:59;7.07;;;4.55;;
37164;SDS011;23057;48.554;14.454;2024-01-15T12:24:31;8.20;;;4.38;;
37164;SDS011;23057;48.554;14.454;2024-01-15T12:27:02;8.15;;;3.90;;
37164;SDS011;23057;48.554;14.454;2024-01-15T12:29:33;7.97;;;4.43;;
37164;SDS011;23057;48.554;14.454;2024-01-15T12:32:04;10.55;;;5.15;;
37164;SDS011;23057;48.554;14.454;2024-01-15T12:34:37;6.95;;;4.55;;
37164;SDS011;23057;48.554;14.454;2024-01-15T12:37:08;10.73;;;4.75;;
37164;SDS011;23057;48.554;14.454;2024-01-15T12:39:39;10.65;;;4.78;;
37164;SDS011;23057;48.554;14.454;2024-01-15T12:42:14;9.52;;;6.13;;
37164;SDS011;23057;48.554;14.454;2024-01-15T12:44:46;7.50;;;4.75;;
37164;SDS011;23057;48.554;14.454;2024-01-15T12:47:17;9.48;;;5.20;;
37164;SDS011;23057;48.554;14.454;2024-01-15T12:49:51;8.45;;;3.75;;
37164;SDS011;23057;48.554;14.454;2024-01-15T12:52:28;7.68;;;4.05;;
37164;SDS011;23057;48.554;14.454;2024-01-15T12:54:59;8.57;;;4.18;;
37164;SDS011;23057;48.554;14.454;2024-01-15T12:57:30;10.00;;;5.25;;
37164;SDS011;23057;48.554;14.454;2024-01-15T13:00:04;8.00;;;4.05;;
37164;SDS011;23057;48.554;14.454;2024-01-15T13:02:41;7.97;;;4.75;;
37164;SDS011;23057;48.554;14.454;2024-01-15T13:05:13;10.30;;;5.25;;
37164;SDS011;23057;48.554;14.454;2024-01-15T13:07:44;5.22;;;3.58;;
37164;SDS011;23057;48.554;14.454;2024-01-15T13:10:15;9.40;;;5.32;;
37164;SDS011;23057;48.554;14.454;2024-01-15T13:12:45;6.95;;;4.82;;
37164;SDS011;23057;48.554;14.454;2024-01-15T13:15:16;7.38;;;4.13;;
37164;SDS011;23057;48.554;14.454;2024-01-15T13:17:47;8.18;;;5.00;;
37164;SDS011;23057;48.554;14.454;2024-01-15T13:20:18;8.88;;;5.60;;
37164;SDS011;23057;48.554;14.454;2024-01-15T13:22:49;9.15;;;5.10;;
37164;SDS011;23057;48.554;14.454;2024-01-15T13:25:20;8.27;;;4.55;;
37164;SDS011;23057;48.554;14.454;2024-01-15T13:27:50;9.82;;;6.18;;
37164;SDS011;23057;48.554;14.454;2024-01-15T13:30:21;7.82;;;4.93;;
37164;SDS011;23057;48.554;14.454;2024-01-15T13:32:52;9.32;;;5.20;;
37164;SDS011;23057;48.554;14.454;2024-01-15T13:35:24;8.93;;;4.72;;
37164;SDS011;23057;48.554;14.454;2024-01-15T13:37:54;8.85;;;3.88;;
37164;SDS011;23057;48.554;14.454;2024-01-15T13:40:25;8.73;;;3.90;;
37164;SDS011;23057;48.554;14.454;2024-01-15T13:42:56;8.15;;;4.75;;
37164;SDS011;23057;48.554;14.454;2024-01-15T13:45:27;6.68;;;4.18;;
37164;SDS011;23057;48.554;14.454;2024-01-15T13:47:58;16.20;;;7.47;;
37164;SDS011;23057;48.554;14.454;2024-01-15T13:50:29;11.15;;;6.00;;
37164;SDS011;23057;48.554;14.454;2024-01-15T13:53:00;12.20;;;7.53;;
37164;SDS011;23057;48.554;14.454;2024-01-15T13:55:33;45.95;;;17.13;;
37164;SDS011;23057;48.554;14.454;2024-01-15T13:58:04;39.67;;;17.30;;
37164;SDS011;23057;48.554;14.454;2024-01-15T14:00:35;79.55;;;26.48;;
37164;SDS011;23057;48.554;14.454;2024-01-15T14:03:06;56.80;;;21.88;;
37164;SDS011;23057;48.554;14.454;2024-01-15T14:05:38;51.38;;;18.35;;
37164;SDS011;23057;48.554;14.454;2024-01-15T14:08:09;62.92;;;22.30;;
37164;SDS011;23057;48.554;14.454;2024-01-15T14:10:39;16.27;;;8.23;;
37164;SDS011;23057;48.554;14.454;2024-01-15T14:13:10;14.45;;;8.18;;
37164;SDS011;23057;48.554;14.454;2024-01-15T14:15:41;16.65;;;9.45;;
37164;SDS011;23057;48.554;14.454;2024-01-15T14:18:12;18.60;;;9.13;;
37164;SDS011;23057;48.554;14.454;2024-01-15T14:20:43;21.42;;;12.02;;
37164;SDS011;23057;48.554;14.454;2024-01-15T14:23:14;16.98;;;9.63;;
37164;SDS011;23057;48.554;14.454;2024-01-15T14:25:44;14.70;;;7.15;;
37164;SDS011;23057;48.554;14.454;2024-01-15T14:28:15;26.42;;;10.85;;
37164;SDS011;23057;48.554;14.454;2024-01-15T14:30:46;8.68;;;5.63;;
37164;SDS011;23057;48.554;14.454;2024-01-15T14:33:17;12.68;;;6.95;;
37164;SDS011;23057;48.554;14.454;2024-01-15T14:35:48;16.10;;;8.13;;
37164;SDS011;23057;48.554;14.454;2024-01-15T14:38:19;17.80;;;8.18;;
37164;SDS011;23057;48.554;14.454;2024-01-15T14:40:50;16.10;;;7.57;;
37164;SDS011;23057;48.554;14.454;2024-01-15T14:43:21;13.38;;;6.68;;
37164;SDS011;23057;48.554;14.454;2024-01-15T14:45:52;10.45;;;5.32;;
37164;SDS011;23057;48.554;14.454;2024-01-15T14:48:23;52.17;;;19.08;;
37164;SDS011;23057;48.554;14.454;2024-01-15T14:50:53;89.45;;;27.52;;
37164;SDS011;23057;48.554;14.454;2024-01-15T14:53:24;16.25;;;8.48;;
37164;SDS011;23057;48.554;14.454;2024-01-15T14:55:55;19.80;;;9.30;;
37164;SDS011;23057;48.554;14.454;2024-01-15T14:58:26;102.10;;;32.80;;